Terminal Aerodrome Forecast
Issued by NWS Binghamton, NY

Home | Current Version | Previous Version | Text Only | Print | Product List | Glossary On
Versions: 1 2 3 4 5 6 7 8 9 10 11 12 13 14 15 16 17
000
FTUS41 KBGM 051320 AAA
TAFAVP
TAF AMD
KAVP 051320Z 0513/0612 36005KT P6SM SCT025 BKN040
      TEMPO 0513/0515 BKN025
     FM051500 35005KT P6SM BKN050
     FM060500 VRB03KT P6SM -RA OVC080
     FM060900 06004KT 5SM -RA BR OVC025=

USA.gov is the U.S. government's official web portal to all federal, state and local government web resources and services.